Time;durP1;ratioP1;P1;durP2;ratioP2;P2;SDS_P1;SDS_P2;PMS_P1;PMS_P2;Temp;Humidity;BMP_temperature;BMP_pressure;BME280_temperature;BME280_humidity;BME280_pressure;Samples;Min_cycle;Max_cycle;Signal;HPM_P1;HPM_P2
2022/11/16 00:01:14;;;;;;;1.40;1.40;;;18.30;74.00;;;;;;5045639;28;43920;-76
2022/11/16 00:03:42;;;;;;;1.30;1.30;;;18.30;74.10;;;;;;5033355;28;44689;-76
2022/11/16 00:06:11;;;;;;;1.40;1.40;;;18.30;74.10;;;;;;5045862;28;43444;-73
2022/11/16 00:08:40;;;;;;;1.10;1.10;;;18.20;74.00;;;;;;5045902;28;43591;-77
2022/11/16 00:11:10;;;;;;;1.00;1.00;;;18.20;74.00;;;;;;5045279;28;43910;-75
2022/11/16 00:13:38;;;;;;;1.10;1.10;;;18.20;74.20;;;;;;5026894;28;44625;-75
2022/11/16 00:16:08;;;;;;;1.30;1.30;;;18.10;74.60;;;;;;5045606;28;43415;-76
2022/11/16 00:18:36;;;;;;;1.13;1.13;;;18.10;74.60;;;;;;5045855;28;43457;-75
2022/11/16 00:21:05;;;;;;;1.40;1.40;;;18.10;74.50;;;;;;5045283;28;43590;-75
2022/11/16 00:23:35;;;;;;;1.10;1.10;;;18.10;74.40;;;;;;5045296;28;43412;-74
2022/11/16 00:26:04;;;;;;;1.30;1.30;;;18.10;74.40;;;;;;5046769;28;43388;-76
2022/11/16 00:28:32;;;;;;;1.20;1.20;;;18.10;74.50;;;;;;5049341;28;43442;-74
2022/11/16 00:31:01;;;;;;;1.07;1.07;;;18.00;74.80;;;;;;5049604;28;45765;-75
2022/11/16 00:33:31;;;;;;;1.13;1.13;;;18.10;74.90;;;;;;5030637;28;44611;-76
2022/11/16 00:36:00;;;;;;;1.30;1.30;;;18.20;74.50;;;;;;5030294;28;43395;-77
2022/11/16 00:38:29;;;;;;;1.20;1.20;;;18.30;74.10;;;;;;5030546;28;43451;-75
2022/11/16 00:40:57;;;;;;;1.23;1.23;;;18.40;73.80;;;;;;5029872;28;45643;-74
2022/11/16 00:43:25;;;;;;;1.20;1.20;;;18.40;73.80;;;;;;5030019;28;44062;-74
2022/11/16 00:45:53;;;;;;;1.13;1.13;;;18.30;73.90;;;;;;5048536;28;43584;-76
2022/11/16 00:48:21;;;;;;;1.37;1.37;;;18.30;74.00;;;;;;5030891;28;43579;-76
2022/11/16 00:50:50;;;;;;;1.30;1.30;;;18.30;73.80;;;;;;5027795;28;46035;-76
2022/11/16 00:53:19;;;;;;;1.00;1.00;;;18.30;73.90;;;;;;5029923;28;43525;-77
2022/11/16 00:55:47;;;;;;;1.27;1.27;;;18.20;73.80;;;;;;5048820;28;43377;-73
2022/11/16 00:58:18;;;;;;;1.20;1.20;;;18.20;74.00;;;;;;5030472;28;43586;-75
2022/11/16 01:00:50;;;;;;;1.30;1.30;;;18.20;74.50;;;;;;5028176;28;45870;-76
2022/11/16 01:03:18;;;;;;;1.30;1.30;;;18.20;74.70;;;;;;5044393;28;43533;-76
2022/11/16 01:05:46;;;;;;;1.20;1.20;;;18.30;74.40;;;;;;5048216;28;43825;-75
2022/11/16 01:08:15;;;;;;;1.10;1.10;;;18.30;74.10;;;;;;5048275;28;43415;-75
2022/11/16 01:10:43;;;;;;;1.10;1.10;;;18.30;74.00;;;;;;5029376;28;45722;-76
2022/11/16 01:13:10;;;;;;;1.40;1.40;;;18.30;74.00;;;;;;5029863;28;44960;-74
2022/11/16 01:15:38;;;;;;;1.20;1.20;;;18.20;74.30;;;;;;5047874;28;43449;-75
2022/11/16 01:18:06;;;;;;;1.23;1.23;;;18.20;74.40;;;;;;5048879;28;43404;-75
2022/11/16 01:20:34;;;;;;;1.10;1.10;;;18.20;74.30;;;;;;5047646;28;43608;-75
2022/11/16 01:23:02;;;;;;;1.13;1.13;;;18.20;74.20;;;;;;5029504;28;44374;-75
2022/11/16 01:25:31;;;;;;;1.30;1.30;;;18.20;74.20;;;;;;5029723;28;43420;-76
2022/11/16 01:27:59;;;;;;;1.20;1.20;;;18.20;74.40;;;;;;5048344;28;43444;-76
2022/11/16 01:30:40;;;;;;;1.10;1.10;;;18.10;74.70;;;;;;5029090;28;45584;-75
2022/11/16 01:33:10;;;;;;;1.10;1.10;;;18.10;74.80;;;;;;5029657;28;43433;-74
2022/11/16 01:35:38;;;;;;;1.10;1.10;;;18.20;74.50;;;;;;5029789;28;43443;-77
2022/11/16 01:38:06;;;;;;;1.00;1.00;;;18.30;74.00;;;;;;5028911;28;43631;-73
2022/11/16 01:40:36;;;;;;;1.13;1.13;;;18.40;73.90;;;;;;5029630;28;43829;-73
2022/11/16 01:43:05;;;;;;;1.27;1.27;;;18.30;73.60;;;;;;5029082;28;44474;-75
2022/11/16 01:45:35;;;;;;;1.20;1.20;;;18.30;74.00;;;;;;5053704;28;43489;-76
2022/11/16 01:48:06;;;;;;;1.13;1.13;;;18.30;74.10;;;;;;5048216;28;43396;-76
2022/11/16 01:50:36;;;;;;;1.00;1.00;;;18.30;73.90;;;;;;5026865;28;46000;-75
2022/11/16 01:53:04;;;;;;;1.10;1.10;;;18.30;73.90;;;;;;5047852;28;43423;-75
2022/11/16 01:55:42;;;;;;;1.07;1.07;;;18.30;73.90;;;;;;5029256;28;44036;-74
2022/11/16 01:58:22;;;;;;;1.20;1.20;;;18.20;74.00;;;;;;5029492;28;43508;-75
2022/11/16 02:00:57;;;;;;;1.10;1.10;;;18.20;74.50;;;;;;5029097;28;44055;-73
2022/11/16 02:03:37;;;;;;;1.10;1.10;;;18.20;74.50;;;;;;5029214;28;43456;-76
2022/11/16 02:06:16;;;;;;;1.10;1.10;;;18.20;74.40;;;;;;5028867;28;43919;-75
2022/11/16 02:11:58;;;;;;;1.13;1.13;;;18.10;74.30;;;;;;5028258;28;43921;-73
2022/11/16 02:14:33;;;;;;;1.20;1.20;;;18.10;74.50;;;;;;5054065;28;44899;-75
2022/11/16 02:17:05;;;;;;;1.20;1.20;;;18.10;74.90;;;;;;5030051;28;43392;-75
2022/11/16 02:19:56;;;;;;;1.30;1.10;;;18.20;74.70;;;;;;5029643;28;43504;-75
2022/11/16 02:22:30;;;;;;;1.30;1.30;;;18.30;74.30;;;;;;5042473;28;43902;-76
2022/11/16 02:24:59;;;;;;;1.30;1.30;;;18.40;73.60;;;;;;5046880;28;43404;-75
2022/11/16 02:27:37;;;;;;;1.00;1.00;;;18.60;73.30;;;;;;5028855;28;43459;-75
2022/11/16 02:30:06;;;;;;;1.13;1.13;;;18.50;73.10;;;;;;5047690;28;43436;-75
2022/11/16 02:32:42;;;;;;;1.10;1.10;;;18.50;73.20;;;;;;5028545;28;45589;-76
2022/11/16 02:35:12;;;;;;;1.03;1.03;;;18.40;73.30;;;;;;5028446;28;43790;-75
2022/11/16 02:37:42;;;;;;;1.00;1.00;;;18.30;73.40;;;;;;5025796;28;43559;-75
2022/11/16 02:40:11;;;;;;;1.00;1.00;;;18.30;74.00;;;;;;5052130;28;43661;-76
2022/11/16 02:42:41;;;;;;;1.20;1.20;;;18.30;74.30;;;;;;5028207;28;44028;-77
2022/11/16 02:45:14;;;;;;;1.10;1.10;;;18.20;74.10;;;;;;5028242;28;43507;-75
2022/11/16 02:47:42;;;;;;;1.10;1.10;;;18.20;74.10;;;;;;5028561;28;43511;-74
2022/11/16 02:50:12;;;;;;;1.00;1.00;;;18.20;74.10;;;;;;5026373;28;44035;-76
2022/11/16 02:52:40;;;;;;;1.00;1.00;;;18.10;74.10;;;;;;5028893;28;45452;-75
2022/11/16 02:55:10;;;;;;;0.90;0.90;;;18.10;74.50;;;;;;5046484;28;43517;-77
2022/11/16 02:57:41;;;;;;;1.10;1.10;;;18.10;74.80;;;;;;5027941;28;43886;-75
2022/11/16 03:00:17;;;;;;;0.90;0.90;;;18.10;74.60;;;;;;5028670;28;43890;-73
2022/11/16 03:02:48;;;;;;;1.10;1.10;;;18.10;74.50;;;;;;5027871;28;45372;-74
2022/11/16 03:05:18;;;;;;;1.00;1.00;;;18.10;74.50;;;;;;5028862;28;44822;-76
2022/11/16 03:07:56;;;;;;;1.20;1.20;;;18.10;74.50;;;;;;5028303;28;43488;-75
2022/11/16 03:13:08;;;;;;;1.00;1.00;;;18.10;75.00;;;;;;5021314;28;43833;-74
2022/11/16 03:15:38;;;;;;;1.10;1.10;;;18.20;74.60;;;;;;5021603;28;43382;-77
2022/11/16 03:18:06;;;;;;;0.80;0.80;;;18.30;74.10;;;;;;5023687;28;43397;-77
2022/11/16 03:20:35;;;;;;;1.10;1.10;;;18.40;73.90;;;;;;5031713;28;43551;-76
2022/11/16 03:23:05;;;;;;;1.00;1.00;;;18.40;73.80;;;;;;5027818;28;44155;-76
2022/11/16 03:25:36;;;;;;;0.97;0.97;;;18.30;74.00;;;;;;5027943;28;43357;-73
2022/11/16 03:28:07;;;;;;;1.00;1.00;;;18.40;74.10;;;;;;5046313;28;43400;-76
2022/11/16 03:30:39;;;;;;;1.00;1.00;;;18.40;73.90;;;;;;5023922;28;43504;-76
2022/11/16 03:33:10;;;;;;;0.93;0.93;;;18.30;73.80;;;;;;5027833;28;43847;-76
2022/11/16 03:35:41;;;;;;;1.00;1.00;;;18.30;73.90;;;;;;5045918;28;43413;-75
2022/11/16 03:38:09;;;;;;;0.90;0.90;;;18.20;73.90;;;;;;5027464;28;43413;-74
2022/11/16 03:40:41;;;;;;;1.00;1.00;;;18.20;74.50;;;;;;5028181;28;43416;-77
2022/11/16 03:43:08;;;;;;;1.00;1.00;;;18.20;74.50;;;;;;5027473;28;45390;-75
2022/11/16 03:45:38;;;;;;;1.00;1.00;;;18.20;74.30;;;;;;5027877;28;44642;-75
2022/11/16 03:48:08;;;;;;;1.07;1.07;;;18.20;74.30;;;;;;5028606;28;43342;-76
2022/11/16 03:50:36;;;;;;;1.10;1.10;;;18.20;74.30;;;;;;5027993;28;43527;-75
2022/11/16 03:53:04;;;;;;;0.80;0.80;;;18.10;74.40;;;;;;5030529;28;45610;-72
2022/11/16 03:55:33;;;;;;;1.10;1.10;;;18.10;74.80;;;;;;5024976;28;43413;-75
2022/11/16 03:58:02;;;;;;;1.00;1.00;;;18.10;74.80;;;;;;5027652;28;43498;-74
2022/11/16 04:00:30;;;;;;;1.00;1.00;;;18.20;74.50;;;;;;5028298;28;43475;-75
2022/11/16 04:02:59;;;;;;;0.90;0.90;;;18.30;74.00;;;;;;5048748;28;43769;-76
2022/11/16 04:25:00;;;;;;;0.80;0.80;;;18.20;74.30;;;;;;5026562;28;45777;-75
2022/11/16 04:30:18;;;;;;;1.00;1.00;;;18.10;74.40;;;;;;5013670;28;43419;-76
2022/11/16 04:38:19;;;;;;;1.00;1.00;;;18.10;74.50;;;;;;5031559;28;45548;-73
2022/11/16 04:40:47;;;;;;;0.90;0.90;;;18.10;75.00;;;;;;5030740;28;43809;-73
2022/11/16 04:43:14;;;;;;;1.07;1.07;;;18.10;74.80;;;;;;5049091;28;43375;-75
2022/11/16 04:48:39;;;;;;;0.70;0.70;;;18.30;74.20;;;;;;4997181;28;44717;-75
2022/11/16 04:51:09;;;;;;;0.90;0.90;;;18.30;74.00;;;;;;5030272;28;43423;-74
2022/11/16 04:53:38;;;;;;;0.87;0.87;;;18.30;74.20;;;;;;5029124;28;43599;-74
2022/11/16 04:56:15;;;;;;;0.90;0.90;;;18.30;74.30;;;;;;5026592;28;44396;-74
2022/11/16 04:58:43;;;;;;;0.80;0.80;;;18.30;74.30;;;;;;5045728;28;43451;-75
2022/11/16 05:01:11;;;;;;;0.70;0.70;;;18.30;74.90;;;;;;5029418;28;43449;-75
2022/11/16 05:03:39;;;;;;;0.70;0.70;;;18.20;74.10;;;;;;5030418;28;44016;-76
2022/11/16 05:06:09;;;;;;;0.80;0.80;;;18.20;74.20;;;;;;5031369;28;44079;-73
2022/11/16 05:08:37;;;;;;;1.00;1.00;;;18.20;74.40;;;;;;5029952;28;44736;-75
2022/11/16 05:11:05;;;;;;;0.90;0.90;;;18.10;74.70;;;;;;5030393;28;43459;-76
2022/11/16 05:13:34;;;;;;;1.00;1.00;;;18.20;74.50;;;;;;5047481;28;43457;-76
2022/11/16 05:16:02;;;;;;;0.90;0.90;;;18.30;74.30;;;;;;5055516;28;43831;-76
2022/11/16 05:18:31;;;;;;;1.00;1.00;;;18.30;74.10;;;;;;5029591;28;43465;-74
2022/11/16 05:20:59;;;;;;;0.80;0.80;;;18.30;74.10;;;;;;5030120;28;43439;-74
2022/11/16 05:26:21;;;;;;;0.90;0.90;;;18.30;74.50;;;;;;4993555;28;45755;-75
2022/11/16 05:28:50;;;;;;;0.90;0.90;;;18.30;74.30;;;;;;5029973;28;45371;-74
2022/11/16 05:31:18;;;;;;;0.80;0.80;;;18.20;74.20;;;;;;5029351;28;43359;-74
2022/11/16 05:33:48;;;;;;;0.80;0.80;;;18.20;74.20;;;;;;5029853;28;43441;-76
2022/11/16 05:36:16;;;;;;;0.80;0.80;;;18.20;74.30;;;;;;5029645;28;43831;-75
2022/11/16 05:38:46;;;;;;;0.80;0.80;;;18.20;74.70;;;;;;5029117;28;43374;-75
2022/11/16 05:41:14;;;;;;;0.77;0.77;;;18.20;74.70;;;;;;5053600;28;43926;-75
2022/11/16 05:43:43;;;;;;;0.90;0.90;;;18.30;74.40;;;;;;5029385;28;43614;-74
2022/11/16 05:46:18;;;;;;;1.03;1.03;;;18.40;74.10;;;;;;5034303;28;44064;-75
2022/11/16 05:48:46;;;;;;;0.70;0.70;;;18.40;73.80;;;;;;5028971;28;43864;-76
2022/11/16 05:51:14;;;;;;;1.00;1.00;;;18.40;73.80;;;;;;5028630;28;43543;-74
2022/11/16 05:53:43;;;;;;;0.87;0.87;;;18.30;74.20;;;;;;5029705;28;43532;-75
2022/11/16 05:56:17;;;;;;;1.00;1.00;;;18.40;74.10;;;;;;5026068;28;43995;-74
2022/11/16 05:58:46;;;;;;;0.83;0.83;;;18.40;73.90;;;;;;5029278;28;43373;-77
2022/11/16 06:01:14;;;;;;;0.90;0.90;;;18.30;73.90;;;;;;5029094;28;43480;-75
2022/11/16 06:03:42;;;;;;;1.00;1.00;;;18.30;74.00;;;;;;5027987;28;43914;-75
2022/11/16 06:06:11;;;;;;;0.80;0.80;;;18.20;74.10;;;;;;5028048;28;43992;-77
2022/11/16 06:08:39;;;;;;;0.90;0.90;;;18.20;74.60;;;;;;5027008;28;44522;-76
2022/11/16 06:11:11;;;;;;;0.87;0.87;;;18.20;74.50;;;;;;5025929;28;43458;-74
2022/11/16 06:13:40;;;;;;;1.00;1.00;;;18.20;74.40;;;;;;5028357;28;44057;-77
2022/11/16 06:16:09;;;;;;;0.87;0.87;;;18.20;74.40;;;;;;5028965;28;44889;-76
2022/11/16 06:18:38;;;;;;;0.80;0.80;;;18.20;74.50;;;;;;5029105;28;45350;-74
2022/11/16 06:21:06;;;;;;;0.80;0.80;;;18.10;74.50;;;;;;5029142;28;43445;-75
2022/11/16 06:23:35;;;;;;;0.60;0.60;;;18.10;74.90;;;;;;5028127;28;43465;-76
2022/11/16 06:26:03;;;;;;;0.90;0.90;;;18.20;74.70;;;;;;5028731;28;44304;-72
2022/11/16 06:28:32;;;;;;;0.73;0.73;;;18.40;74.40;;;;;;5028492;28;43525;-75
2022/11/16 06:31:02;;;;;;;0.80;0.80;;;18.50;73.80;;;;;;5028888;28;43420;-74
2022/11/16 06:33:35;;;;;;;0.90;0.90;;;18.60;73.30;;;;;;5029424;28;43969;-75
2022/11/16 06:36:08;;;;;;;0.80;0.80;;;18.60;73.00;;;;;;5028607;28;43818;-74
2022/11/16 06:38:37;;;;;;;0.87;0.87;;;18.60;73.10;;;;;;5027143;28;43368;-75
2022/11/16 06:41:05;;;;;;;0.73;0.73;;;18.50;73.20;;;;;;5027878;28;43477;-75
2022/11/16 06:43:39;;;;;;;0.90;0.90;;;18.40;73.40;;;;;;5039897;28;43538;-74
2022/11/16 06:46:08;;;;;;;0.80;0.80;;;18.40;73.80;;;;;;5028480;28;44405;-76
2022/11/16 06:48:39;;;;;;;0.90;0.90;;;18.30;74.20;;;;;;5024491;28;43359;-75
2022/11/16 06:51:11;;;;;;;0.90;0.90;;;18.30;74.90;;;;;;5027327;28;43392;-74
2022/11/16 06:53:39;;;;;;;0.90;0.90;;;18.30;74.00;;;;;;5047376;28;43451;-75
2022/11/16 06:56:07;;;;;;;0.80;0.80;;;18.20;74.00;;;;;;5028189;28;45719;-76
2022/11/16 06:58:41;;;;;;;0.97;0.97;;;18.20;74.10;;;;;;5028188;28;44611;-76
2022/11/16 07:01:12;;;;;;;0.70;0.70;;;18.20;74.40;;;;;;5028812;28;43373;-75
2022/11/16 07:03:42;;;;;;;0.70;0.70;;;18.20;74.70;;;;;;5028385;28;43602;-74
2022/11/16 07:06:13;;;;;;;0.90;0.90;;;18.20;74.50;;;;;;5028570;28;43957;-75
2022/11/16 07:08:44;;;;;;;0.80;0.80;;;18.10;74.40;;;;;;5028288;28;44678;-75
2022/11/16 07:11:15;;;;;;;0.80;0.80;;;18.20;74.40;;;;;;5028349;28;43985;-74
2022/11/16 07:13:43;;;;;;;0.90;0.90;;;18.10;74.50;;;;;;5046357;28;44088;-74
2022/11/16 07:16:12;;;;;;;0.77;0.77;;;18.10;74.70;;;;;;5034830;28;44083;-74
2022/11/16 07:18:46;;;;;;;0.77;0.77;;;18.10;74.90;;;;;;5051691;28;43461;-75
2022/11/16 07:21:15;;;;;;;0.90;0.90;;;18.20;74.70;;;;;;5033578;28;43952;-73
2022/11/16 07:23:44;;;;;;;0.80;0.80;;;18.30;74.20;;;;;;5028564;28;43491;-75
2022/11/16 07:26:17;;;;;;;0.80;0.80;;;18.40;73.90;;;;;;5061347;28;44075;-74
2022/11/16 07:28:51;;;;;;;0.80;0.80;;;18.40;73.70;;;;;;5022388;28;43511;-74
2022/11/16 07:31:22;;;;;;;0.80;0.80;;;18.40;73.90;;;;;;5028232;28;43976;-74
2022/11/16 07:34:10;;;;;;;0.70;0.70;;;18.40;74.00;;;;;;5046111;28;43518;-76
2022/11/16 07:36:45;;;;;;;0.90;0.90;;;18.30;74.50;;;;;;5026892;28;45590;-76
2022/11/16 07:39:13;;;;;;;0.80;0.80;;;18.40;73.90;;;;;;5052445;28;44888;-76
2022/11/16 07:41:43;;;;;;;0.90;0.90;;;18.30;73.80;;;;;;5028336;28;43381;-75
2022/11/16 07:44:24;;;;;;;0.90;0.90;;;18.30;74.00;;;;;;5044777;28;43456;-77
2022/11/16 07:47:06;;;;;;;1.07;1.07;;;18.20;74.40;;;;;;5027659;28;43744;-75
2022/11/16 07:49:36;;;;;;;0.80;0.80;;;18.20;74.40;;;;;;5025122;28;43940;-75
2022/11/16 07:52:13;;;;;;;1.10;1.10;;;18.20;74.10;;;;;;5025537;28;43408;-74
2022/11/16 07:55:02;;;;;;;0.90;0.90;;;18.20;74.10;;;;;;5028227;28;43971;-75
2022/11/16 07:57:30;;;;;;;1.50;1.40;;;18.20;74.20;;;;;;5027936;28;44083;-76
2022/11/16 08:00:02;;;;;;;1.50;1.50;;;18.20;74.60;;;;;;5027611;28;44613;-73
2022/11/16 08:02:41;;;;;;;1.60;1.50;;;18.20;74.70;;;;;;5040954;28;43499;-75
2022/11/16 08:05:17;;;;;;;1.67;1.57;;;18.20;74.50;;;;;;5029237;28;43442;-76
2022/11/16 08:07:46;;;;;;;1.37;1.37;;;18.20;74.20;;;;;;5027247;28;44031;-75
2022/11/16 08:10:14;;;;;;;1.83;1.60;;;18.20;74.30;;;;;;5051675;28;44777;-75
2022/11/16 08:12:42;;;;;;;2.27;2.07;;;18.20;74.40;;;;;;5027631;28;43385;-74
2022/11/16 08:15:12;;;;;;;1.90;1.80;;;18.10;74.60;;;;;;5027875;28;43543;-78
2022/11/16 08:17:42;;;;;;;2.70;2.20;;;18.20;74.80;;;;;;5024801;28;45969;-76
2022/11/16 08:20:12;;;;;;;2.57;2.20;;;18.30;74.50;;;;;;5027552;28;44041;-76
2022/11/16 08:22:41;;;;;;;2.57;2.33;;;18.40;74.10;;;;;;5027783;28;43413;-74
2022/11/16 08:25:10;;;;;;;2.53;2.33;;;18.60;73.60;;;;;;5027878;28;43512;-76
2022/11/16 08:27:41;;;;;;;2.77;2.30;;;18.70;73.10;;;;;;5051268;28;45435;-75
2022/11/16 08:30:10;;;;;;;2.70;2.30;;;18.70;72.90;;;;;;5027153;28;43538;-75
2022/11/16 08:32:40;;;;;;;3.97;2.30;;;18.70;72.90;;;;;;5025297;28;43470;-76
2022/11/16 08:35:10;;;;;;;2.10;2.00;;;18.60;73.00;;;;;;5027786;28;43938;-77
2022/11/16 08:37:38;;;;;;;2.47;2.27;;;18.50;73.10;;;;;;5026117;28;45440;-74
2022/11/16 08:40:09;;;;;;;2.63;2.43;;;18.40;73.40;;;;;;5044741;28;44521;-75
2022/11/16 08:42:38;;;;;;;2.33;2.13;;;18.40;74.00;;;;;;5027393;28;43427;-76
2022/11/16 08:45:11;;;;;;;2.20;2.00;;;18.40;73.90;;;;;;5048616;28;43590;-76
2022/11/16 08:47:39;;;;;;;2.40;2.30;;;18.30;73.70;;;;;;5040413;28;43695;-75
2022/11/16 08:50:10;;;;;;;2.20;2.10;;;18.30;73.70;;;;;;5024073;28;44726;-75
2022/11/16 08:52:38;;;;;;;2.77;2.23;;;18.30;74.00;;;;;;5026078;28;43420;-73
2022/11/16 08:55:06;;;;;;;2.43;2.23;;;18.20;74.10;;;;;;5031213;28;43577;-75
2022/11/16 08:57:34;;;;;;;3.00;2.17;;;18.20;74.50;;;;;;5030547;28;45835;-74
2022/11/16 09:00:08;;;;;;;2.70;2.50;;;18.20;74.30;;;;;;5030329;28;43786;-77
2022/11/16 09:02:36;;;;;;;2.43;2.30;;;18.20;74.10;;;;;;5049248;28;43497;-76
2022/11/16 09:05:04;;;;;;;2.43;2.23;;;18.20;74.20;;;;;;5030630;28;43478;-76
2022/11/16 09:07:33;;;;;;;2.50;2.40;;;18.20;74.30;;;;;;5030386;28;45741;-75
2022/11/16 09:10:01;;;;;;;2.30;2.20;;;18.10;74.50;;;;;;5048506;28;44041;-76
2022/11/16 09:12:29;;;;;;;2.83;2.60;;;18.20;74.80;;;;;;5048278;28;44033;-77
2022/11/16 09:14:57;;;;;;;2.60;2.40;;;18.20;74.50;;;;;;5049018;28;43492;-74
2022/11/16 09:17:25;;;;;;;3.07;2.50;;;18.40;74.20;;;;;;5048271;28;43965;-75
2022/11/16 09:19:53;;;;;;;2.43;2.23;;;18.50;73.70;;;;;;5047815;28;43409;-75
2022/11/16 09:22:22;;;;;;;3.10;2.80;;;18.60;73.30;;;;;;5048120;28;43927;-77
2022/11/16 09:24:52;;;;;;;2.70;2.50;;;18.60;73.10;;;;;;5030361;28;43878;-75
2022/11/16 09:27:20;;;;;;;2.70;2.50;;;18.60;73.10;;;;;;5048045;28;43608;-74
2022/11/16 09:29:47;;;;;;;2.30;2.20;;;18.50;73.20;;;;;;5043501;28;43389;-75
2022/11/16 09:32:15;;;;;;;2.80;2.60;;;18.40;73.40;;;;;;5030110;28;43459;-75
2022/11/16 09:34:43;;;;;;;3.03;2.73;;;18.40;73.70;;;;;;5030127;28;43491;-76
2022/11/16 09:37:11;;;;;;;1.80;1.80;;;18.30;74.10;;;;;;5029608;28;45509;-75
2022/11/16 09:39:39;;;;;;;2.47;2.37;;;18.30;74.00;;;;;;5047372;28;43468;-76
2022/11/16 09:42:19;;;;;;;2.23;2.13;;;18.30;74.00;;;;;;5048477;28;43452;-75
2022/11/16 09:44:58;;;;;;;2.33;2.23;;;18.30;74.10;;;;;;5044967;28;43439;-76
2022/11/16 09:47:31;;;;;;;3.03;2.60;;;18.30;74.20;;;;;;5047591;28;43600;-75
2022/11/16 09:50:00;;;;;;;2.90;2.60;;;18.20;74.50;;;;;;5046564;28;43451;-76
2022/11/16 09:52:34;;;;;;;2.37;2.20;;;18.20;74.60;;;;;;5029733;28;43390;-76
2022/11/16 09:55:03;;;;;;;2.63;2.50;;;18.20;74.40;;;;;;5042039;28;44077;-73
2022/11/16 09:57:34;;;;;;;3.00;2.60;;;18.20;74.40;;;;;;5047823;28;43604;-76
2022/11/16 10:00:04;;;;;;;2.37;2.20;;;18.20;74.50;;;;;;5022976;28;45222;-75
2022/11/16 10:02:41;;;;;;;2.80;2.60;;;18.20;74.60;;;;;;5044371;28;44047;-73
2022/11/16 10:05:12;;;;;;;2.43;2.33;;;18.10;74.80;;;;;;5048208;28;43761;-73
2022/11/16 10:07:41;;;;;;;2.83;2.50;;;18.20;74.80;;;;;;5047609;28;43625;-76
2022/11/16 10:10:12;;;;;;;2.53;2.43;;;18.30;74.50;;;;;;5047594;28;43394;-75
2022/11/16 10:12:42;;;;;;;2.57;2.20;;;18.40;74.00;;;;;;5029451;28;43416;-74
2022/11/16 10:15:22;;;;;;;2.53;2.33;;;18.50;73.80;;;;;;5047850;28;43458;-78
2022/11/16 10:17:59;;;;;;;3.00;2.70;;;18.50;73.60;;;;;;5027865;28;45339;-76
2022/11/16 10:20:44;;;;;;;2.90;2.70;;;18.50;74.00;;;;;;5029072;28;44284;-77
2022/11/16 10:23:15;;;;;;;2.37;2.23;;;18.40;73.80;;;;;;5046360;28;43427;-76
2022/11/16 10:25:43;;;;;;;2.33;2.17;;;18.40;73.70;;;;;;5046476;28;43480;-75
2022/11/16 10:28:26;;;;;;;2.37;2.17;;;18.40;73.80;;;;;;5046865;28;43981;-74
2022/11/16 10:30:57;;;;;;;2.33;2.13;;;18.30;73.80;;;;;;5047086;28;43439;-75
2022/11/16 10:33:25;;;;;;;2.53;2.33;;;18.30;74.10;;;;;;5028743;28;43494;-75
2022/11/16 10:35:53;;;;;;;3.00;2.40;;;18.20;74.40;;;;;;5029199;28;44529;-76
2022/11/16 10:38:22;;;;;;;2.30;2.20;;;18.30;74.30;;;;;;5045053;28;43918;-75
2022/11/16 10:40:51;;;;;;;2.80;2.60;;;18.30;74.30;;;;;;5027274;28;43907;-74
2022/11/16 10:43:22;;;;;;;2.10;2.00;;;18.20;74.20;;;;;;5047356;28;43504;-74
2022/11/16 10:45:51;;;;;;;2.53;2.40;;;18.20;74.30;;;;;;5047141;28;44032;-74
2022/11/16 10:48:26;;;;;;;2.60;2.40;;;18.20;74.50;;;;;;5028196;28;43892;-74
2022/11/16 10:50:54;;;;;;;2.20;2.10;;;18.20;74.80;;;;;;5046024;28;43463;-74
2022/11/16 10:53:29;;;;;;;2.23;2.13;;;18.20;74.50;;;;;;5047170;28;43448;-75
2022/11/16 10:56:09;;;;;;;2.00;1.90;;;18.20;74.40;;;;;;5045290;28;43446;-75
2022/11/16 10:58:57;;;;;;;2.37;2.23;;;18.20;74.40;;;;;;5028692;28;45284;-77
2022/11/16 11:01:34;;;;;;;2.40;2.30;;;18.20;74.50;;;;;;5044652;28;43434;-77
2022/11/16 11:04:30;;;;;;;2.10;2.00;;;18.20;74.90;;;;;;5046503;28;43932;-73
2022/11/16 11:06:59;;;;;;;2.37;2.20;;;18.20;74.70;;;;;;4997863;28;43540;-74
2022/11/16 11:09:28;;;;;;;2.43;2.23;;;18.30;74.20;;;;;;5046513;28;43707;-75
2022/11/16 11:15:05;;;;;;;1.90;1.90;;;18.60;73.20;;;;;;5040461;28;43460;-75
2022/11/16 11:17:34;;;;;;;2.10;1.83;;;18.60;73.00;;;;;;5046935;28;43412;-77
2022/11/16 11:20:04;;;;;;;2.17;1.97;;;18.60;73.00;;;;;;5045314;28;44183;-75
2022/11/16 11:22:32;;;;;;;2.13;1.90;;;18.60;74.00;;;;;;5046034;28;44058;-76
2022/11/16 11:25:02;;;;;;;2.30;2.10;;;18.50;73.50;;;;;;5046156;28;43447;-75
2022/11/16 11:27:32;;;;;;;2.20;2.10;;;18.40;73.70;;;;;;5045700;28;43433;-73
2022/11/16 11:30:02;;;;;;;2.23;2.13;;;18.40;74.10;;;;;;5043552;28;43871;-77
2022/11/16 11:32:32;;;;;;;2.20;2.10;;;18.40;74.10;;;;;;5045949;28;43476;-75
2022/11/16 11:35:00;;;;;;;2.23;2.13;;;18.30;74.00;;;;;;5046043;28;43464;-76
2022/11/16 11:37:29;;;;;;;1.83;1.73;;;18.30;74.00;;;;;;5047079;28;43332;-73
2022/11/16 11:40:22;;;;;;;2.03;1.93;;;18.30;74.10;;;;;;5045781;28;43617;-77
2022/11/16 11:42:58;;;;;;;2.00;1.90;;;18.30;74.50;;;;;;5027275;28;43482;-77
2022/11/16 11:45:32;;;;;;;2.53;2.33;;;18.20;74.40;;;;;;5046106;28;43352;-74
2022/11/16 11:48:02;;;;;;;2.00;1.90;;;18.30;74.30;;;;;;5028275;28;43538;-76
2022/11/16 11:50:43;;;;;;;2.23;2.00;;;18.20;74.20;;;;;;5043817;28;43952;-76
2022/11/16 11:53:44;;;;;;;2.57;2.37;;;18.20;74.30;;;;;;5026354;28;44393;-75
2022/11/16 11:56:12;;;;;;;2.00;1.90;;;18.20;74.40;;;;;;4961379;28;43432;-76
2022/11/16 11:58:41;;;;;;;2.20;2.10;;;18.20;74.70;;;;;;5027919;28;43419;-74
2022/11/16 12:01:33;;;;;;;2.43;2.23;;;18.30;74.60;;;;;;5045764;28;43956;-75
2022/11/16 12:04:24;;;;;;;2.03;1.93;;;18.40;74.10;;;;;;5045762;28;43460;-74
2022/11/16 12:06:54;;;;;;;2.27;2.10;;;18.50;73.70;;;;;;5009721;28;44143;-75
2022/11/16 12:09:28;;;;;;;2.30;2.20;;;18.50;73.40;;;;;;5046549;28;44029;-75
2022/11/16 12:12:03;;;;;;;1.67;1.67;;;18.50;73.70;;;;;;5045312;28;44086;-74
2022/11/16 12:14:40;;;;;;;2.30;2.20;;;18.50;73.70;;;;;;5045903;28;43465;-74
2022/11/16 12:17:12;;;;;;;2.00;1.90;;;18.50;73.50;;;;;;5045932;28;43448;-73
2022/11/16 12:19:55;;;;;;;1.90;1.83;;;18.50;73.50;;;;;;5046343;28;43480;-75
2022/11/16 12:22:35;;;;;;;2.00;1.90;;;18.40;73.70;;;;;;5046461;28;43869;-76
2022/11/16 12:25:08;;;;;;;2.43;2.23;;;18.40;73.80;;;;;;5048882;28;43522;-76
2022/11/16 12:27:38;;;;;;;2.30;2.20;;;18.30;74.20;;;;;;5049088;28;43435;-76
2022/11/16 12:30:09;;;;;;;1.90;1.80;;;18.40;74.20;;;;;;5049415;28;43470;-73
2022/11/16 12:32:54;;;;;;;1.80;1.77;;;18.30;74.00;;;;;;5030380;28;45680;-76
2022/11/16 12:35:44;;;;;;;1.73;1.73;;;18.30;74.10;;;;;;5042761;28;43355;-76
2022/11/16 12:38:34;;;;;;;1.90;1.80;;;18.30;74.20;;;;;;5048876;28;44013;-76
2022/11/16 12:41:08;;;;;;;2.20;2.10;;;18.30;74.60;;;;;;5049184;28;43385;-75
2022/11/16 12:43:38;;;;;;;2.20;2.10;;;18.30;74.70;;;;;;5048846;28;43850;-76
2022/11/16 12:46:10;;;;;;;2.13;2.03;;;18.40;74.30;;;;;;5048520;28;43437;-77
2022/11/16 12:49:16;;;;;;;2.20;2.10;;;18.50;73.90;;;;;;5030576;28;44028;-75
2022/11/16 12:51:54;;;;;;;1.70;1.70;;;18.50;73.60;;;;;;5046943;28;43466;-74
2022/11/16 12:54:41;;;;;;;2.20;2.10;;;18.50;73.50;;;;;;5045340;28;43947;-74
2022/11/16 12:57:33;;;;;;;2.03;1.93;;;18.40;73.80;;;;;;5044429;28;43381;-75
2022/11/16 13:00:05;;;;;;;2.23;2.13;;;18.50;73.80;;;;;;5024462;28;43424;-74
2022/11/16 13:02:44;;;;;;;2.00;2.00;;;18.50;73.70;;;;;;5049223;28;43446;-75
2022/11/16 13:05:17;;;;;;;1.90;1.90;;;18.40;73.70;;;;;;5048237;28;43851;-77
2022/11/16 13:07:46;;;;;;;2.33;2.23;;;18.30;73.80;;;;;;5029570;28;44253;-75
2022/11/16 13:10:16;;;;;;;2.00;1.90;;;18.30;74.20;;;;;;5048970;28;43361;-75
2022/11/16 13:12:44;;;;;;;2.07;1.97;;;18.30;74.30;;;;;;5048665;28;43439;-75
2022/11/16 13:15:17;;;;;;;1.97;1.87;;;18.30;74.20;;;;;;5048280;28;43620;-75
2022/11/16 13:17:50;;;;;;;2.10;2.00;;;18.30;74.10;;;;;;5048176;28;44048;-76
2022/11/16 13:20:25;;;;;;;2.07;1.97;;;18.20;74.10;;;;;;5054827;28;43491;-76
2022/11/16 13:22:55;;;;;;;2.07;1.90;;;18.20;74.30;;;;;;5048370;28;43463;-75
2022/11/16 13:25:25;;;;;;;2.00;1.90;;;18.20;74.70;;;;;;5048139;28;43902;-76
2022/11/16 13:27:54;;;;;;;1.90;1.90;;;18.30;74.60;;;;;;5029533;28;44759;-75
2022/11/16 13:30:23;;;;;;;2.10;1.93;;;18.40;74.10;;;;;;5042074;28;43512;-75
2022/11/16 13:33:01;;;;;;;2.00;1.90;;;18.50;73.90;;;;;;5048630;28;43424;-74
2022/11/16 13:35:30;;;;;;;2.00;1.90;;;18.50;73.60;;;;;;5041843;28;45475;-75
2022/11/16 13:37:59;;;;;;;1.90;1.90;;;18.50;73.60;;;;;;5047807;28;43892;-76
2022/11/16 13:40:32;;;;;;;2.23;2.13;;;18.40;73.90;;;;;;5048057;28;43419;-73
2022/11/16 13:43:14;;;;;;;2.30;2.20;;;18.40;73.80;;;;;;5048151;28;43409;-75
2022/11/16 13:45:44;;;;;;;2.10;2.00;;;18.40;73.70;;;;;;5047686;28;43911;-75
2022/11/16 13:48:17;;;;;;;1.77;1.77;;;18.40;73.80;;;;;;5047668;28;43387;-76
2022/11/16 13:50:51;;;;;;;2.20;2.10;;;18.40;73.90;;;;;;5045235;28;43457;-76
2022/11/16 13:53:24;;;;;;;1.90;1.80;;;18.30;74.10;;;;;;5048359;28;43472;-76